Time;durP1;ratioP1;P1;durP2;ratioP2;P2;SDS_P1;SDS_P2;PMS_P1;PMS_P2;Temp;Humidity;BMP_temperature;BMP_pressure;BME280_temperature;BME280_humidity;BME280_pressure;Samples;Min_cycle;Max_cycle;Signal;HPM_P1;HPM_P2
2023/02/05 00:09:55;;;;;;;54.10;23.20;;;;;;;-4.00;73.73;102332.67;674338;1268;139632;-84
2023/02/05 00:24:58;;;;;;;88.30;31.40;;;;;;;-4.25;73.76;102345.35;674456;1265;139610;-84
2023/02/05 00:40:02;;;;;;;72.20;25.70;;;;;;;-4.42;74.06;102364.71;674156;1268;139207;-85
2023/02/05 00:55:06;;;;;;;75.40;26.20;;;;;;;-4.38;73.68;102377.02;672286;1267;139842;-86
2023/02/05 01:10:09;;;;;;;79.20;27.30;;;;;;;-4.10;73.58;102400.82;672390;1268;139543;-85
2023/02/05 01:25:12;;;;;;;46.20;17.50;;;;;;;-4.02;73.68;102398.82;671554;1265;140324;-85
2023/02/05 01:40:17;;;;;;;46.50;19.20;;;;;;;-3.63;74.72;102398.52;672778;1268;139320;-85
2023/02/05 01:55:20;;;;;;;51.40;21.40;;;;;;;-3.33;74.79;102394.38;672333;1268;140244;-84
2023/02/05 02:10:25;;;;;;;60.90;22.80;;;;;;;-3.06;74.91;102385.21;670190;1268;139887;-84
2023/02/05 02:25:52;;;;;;;57.50;20.90;;;;;;;-2.72;75.38;102386.13;672533;1268;139636;-83
2023/02/05 02:41:05;;;;;;;101.70;35.20;;;;;;;-2.46;75.69;102403.62;670589;1268;138428;-85
2023/02/05 02:56:12;;;;;;;;;;;;;;;-2.27;75.88;102402.08;672205;1281;139535;-85
2023/02/05 03:11:16;;;;;;;104.20;35.30;;;;;;;-2.09;76.28;102385.42;672085;1268;125708;-84
2023/02/05 03:26:34;;;;;;;59.40;23.60;;;;;;;-1.96;76.42;102386.42;669652;1268;139820;-84
2023/02/05 03:42:12;;;;;;;44.70;21.00;;;;;;;-1.98;76.42;102377.52;671473;1267;139422;-84
2023/02/05 03:57:34;;;;;;;43.10;19.30;;;;;;;-2.06;76.25;102392.27;672844;1269;139663;-84
2023/02/05 04:12:37;;;;;;;47.90;22.00;;;;;;;-2.02;76.54;102405.82;672359;1267;139428;-85
2023/02/05 04:27:41;;;;;;;66.90;20.70;;;;;;;-2.00;76.71;102405.81;674003;1268;139727;-84
2023/02/05 04:42:44;;;;;;;40.80;15.30;;;;;;;-2.06;76.37;102417.83;670677;1270;139767;-84
2023/02/05 04:57:48;;;;;;;42.80;17.20;;;;;;;-1.84;77.01;102418.64;671259;1281;139958;-85
2023/02/05 05:12:54;;;;;;;29.20;15.00;;;;;;;-1.69;77.09;102394.25;672406;1265;139679;-83
2023/02/05 05:27:57;;;;;;;30.40;15.40;;;;;;;-1.59;77.01;102383.92;671951;1272;140338;-83
2023/02/05 05:58:22;;;;;;;185.90;41.90;;;;;;;-1.48;77.16;102406.52;673820;1265;139616;-83
2023/02/05 06:13:26;;;;;;;846.70;245.60;;;;;;;-1.48;77.10;102403.27;674039;1265;139981;-84
2023/02/05 06:28:29;;;;;;;60.50;25.40;;;;;;;-1.40;77.15;102413.20;672238;1265;140156;-83
2023/02/05 06:43:32;;;;;;;293.30;92.00;;;;;;;-1.32;77.27;102451.45;673884;1265;140358;-83
2023/02/05 06:58:35;;;;;;;518.10;114.40;;;;;;;-1.56;77.02;102445.88;673127;1282;139954;-84
2023/02/05 07:13:38;;;;;;;137.80;47.60;;;;;;;-1.39;77.15;102466.41;675506;1264;139613;-84
2023/02/05 07:28:42;;;;;;;81.10;30.60;;;;;;;-1.15;77.05;102486.25;673678;1265;139817;-83
2023/02/05 07:43:50;;;;;;;105.90;44.70;;;;;;;-0.63;77.41;102499.55;672154;1265;139631;-84
2023/02/05 07:58:54;;;;;;;38.80;18.90;;;;;;;0.18;76.82;102505.16;671508;1274;139739;-83
2023/02/05 08:13:57;;;;;;;97.10;36.20;;;;;;;0.76;77.01;102533.86;673898;1265;138991;-83
2023/02/05 08:29:02;;;;;;;64.60;22.20;;;;;;;0.97;76.14;102562.93;673171;1281;139734;-84
2023/02/05 08:44:06;;;;;;;563.40;253.90;;;;;;;1.11;75.09;102572.77;675957;1276;139593;-84
2023/02/05 08:59:10;;;;;;;330.70;112.00;;;;;;;1.62;73.36;102579.69;675222;1266;139560;-85
2023/02/05 09:14:14;;;;;;;105.60;45.70;;;;;;;1.99;70.99;102594.88;674311;1263;140547;-84
2023/02/05 09:29:18;;;;;;;135.30;52.80;;;;;;;3.05;71.49;102588.88;674824;1273;139578;-84
2023/02/05 09:44:35;;;;;;;47.90;23.10;;;;;;;3.76;70.42;102579.95;673547;1269;139148;-84
2023/02/05 09:59:43;;;;;;;68.30;28.90;;;;;;;3.97;67.56;102568.39;673414;1266;138935;-83
2023/02/05 10:15:01;;;;;;;448.00;139.80;;;;;;;4.69;67.42;102563.45;675711;1267;139284;-83
2023/02/05 10:30:29;;;;;;;457.50;168.40;;;;;;;5.03;63.71;102551.42;675021;1272;139587;-82
2023/02/05 10:45:33;;;;;;;177.40;73.10;;;;;;;5.68;64.40;102544.99;673378;1273;139547;-81
2023/02/05 11:00:38;;;;;;;37.70;16.70;;;;;;;6.04;62.66;102529.95;673659;1269;139469;-81
2023/02/05 11:15:57;;;;;;;87.30;40.30;;;;;;;6.05;60.57;102518.29;674891;1274;138877;-82
2023/02/05 11:31:39;;;;;;;144.30;41.10;;;;;;;6.33;60.17;102511.64;673657;1266;139471;-81
2023/02/05 11:46:44;;;;;;;66.80;31.20;;;;;;;6.01;58.72;102505.72;675171;1270;139753;-82
2023/02/05 12:01:48;;;;;;;31.60;16.10;;;;;;;6.95;59.48;102515.66;673235;1262;140135;-83
2023/02/05 12:17:26;;;;;;;58.00;22.20;;;;;;;7.40;58.85;102489.77;673564;1277;139691;-83
2023/02/05 12:32:51;;;;;;;128.30;43.40;;;;;;;7.43;57.01;102469.64;674740;1266;138768;-82
2023/02/05 12:48:11;;;;;;;219.40;68.00;;;;;;;7.88;56.62;102467.45;675383;1269;138202;-82
2023/02/05 13:03:28;;;;;;;100.50;40.20;;;;;;;8.67;57.03;102470.84;674137;1264;138318;-81
2023/02/05 13:18:37;;;;;;;109.30;36.20;;;;;;;9.20;56.63;102468.27;674491;1264;138975;-81
2023/02/05 13:33:42;;;;;;;32.90;13.90;;;;;;;10.92;54.31;102466.36;677366;1259;138904;-82
2023/02/05 13:49:02;;;;;;;53.60;24.50;;;;;;;15.17;48.52;102471.71;677451;1263;138752;-82
2023/02/05 14:04:19;;;;;;;118.80;61.30;;;;;;;16.84;46.26;102454.71;677088;1259;137614;-83
2023/02/05 14:19:44;;;;;;;23.00;13.70;;;;;;;17.81;45.60;102453.83;672926;1263;139379;-83
2023/02/05 14:34:58;;;;;;;69.20;29.90;;;;;;;17.26;43.31;102473.79;675506;1263;139400;-83
2023/02/05 14:50:06;;;;;;;30.30;16.70;;;;;;;12.64;47.02;102464.66;674704;1263;138894;-82
2023/02/05 15:05:19;;;;;;;47.80;18.40;;;;;;;9.16;50.07;102465.55;673373;1259;139108;-81
2023/02/05 15:20:30;;;;;;;76.50;36.10;;;;;;;7.19;53.14;102478.34;674507;1264;138726;-82
2023/02/05 15:35:36;;;;;;;79.70;37.80;;;;;;;5.21;55.56;102489.63;675388;1259;137693;-81
2023/02/05 15:50:56;;;;;;;100.90;45.70;;;;;;;3.91;57.71;102500.29;675649;1263;137691;-82
2023/02/05 16:06:01;;;;;;;108.70;43.50;;;;;;;3.05;59.49;102508.48;675993;1264;138706;-81
2023/02/05 16:21:17;;;;;;;103.90;46.90;;;;;;;2.48;60.84;102531.20;673155;1276;138213;-81
2023/02/05 16:36:27;;;;;;;125.70;45.00;;;;;;;2.04;61.53;102531.26;674686;1265;137727;-81
2023/02/05 16:51:31;;;;;;;119.00;49.40;;;;;;;1.78;62.38;102541.16;673765;1264;141280;-82
2023/02/05 17:06:37;;;;;;;438.30;145.00;;;;;;;1.22;62.55;102562.27;674914;1261;137981;-81
2023/02/05 17:21:41;;;;;;;269.20;102.10;;;;;;;0.73;63.32;102569.39;674915;1263;139067;-82
2023/02/05 17:36:45;;;;;;;220.30;87.00;;;;;;;0.49;63.82;102561.86;676356;1263;141554;-81
2023/02/05 17:51:49;;;;;;;131.80;52.20;;;;;;;0.27;64.67;102549.67;675307;1264;138930;-82
2023/02/05 18:06:53;;;;;;;128.80;49.40;;;;;;;0.32;64.85;102543.25;675965;1275;139734;-82
2023/02/05 18:21:58;;;;;;;93.10;38.60;;;;;;;0.11;65.43;102546.02;672905;1275;139466;-82
2023/02/05 18:37:02;;;;;;;140.60;57.20;;;;;;;-0.06;65.04;102541.31;676320;1263;139723;-82
2023/02/05 18:52:06;;;;;;;129.80;47.30;;;;;;;-0.16;65.48;102540.04;675943;1265;139208;-82
2023/02/05 19:07:10;;;;;;;336.90;116.90;;;;;;;-0.27;65.59;102565.39;671319;1265;139514;-83
2023/02/05 19:22:13;;;;;;;681.20;212.60;;;;;;;-0.36;66.16;102588.48;672518;1264;139734;-84
2023/02/05 19:37:17;;;;;;;265.80;92.80;;;;;;;-0.43;66.28;102597.45;672857;1262;139649;-83
2023/02/05 19:52:21;;;;;;;503.10;159.50;;;;;;;-0.41;66.77;102606.39;673658;1265;140020;-84
2023/02/05 20:07:25;;;;;;;382.50;117.70;;;;;;;-0.52;67.02;102603.69;673842;1260;139128;-84
2023/02/05 20:22:29;;;;;;;466.40;145.10;;;;;;;-0.54;67.42;102611.26;673353;1265;139343;-84
2023/02/05 20:37:35;;;;;;;253.70;91.70;;;;;;;-0.62;67.78;102618.35;673787;1263;139637;-84
2023/02/05 20:52:39;;;;;;;215.70;78.20;;;;;;;-0.62;67.89;102610.27;672696;1265;139320;-83
2023/02/05 21:07:43;;;;;;;133.80;52.50;;;;;;;-0.71;68.01;102596.04;674957;1262;181929;-83
2023/02/05 21:22:47;;;;;;;134.20;54.10;;;;;;;-0.83;68.12;102600.53;674296;1266;139999;-83
2023/02/05 21:37:54;;;;;;;428.90;131.20;;;;;;;-1.02;68.50;102616.41;674362;1265;139835;-82
2023/02/05 21:53:11;;;;;;;429.20;110.80;;;;;;;-1.38;68.42;102638.43;673366;1264;139539;-83
2023/02/05 22:08:14;;;;;;;481.10;122.60;;;;;;;-1.61;68.99;102653.54;675226;1264;138588;-83
2023/02/05 22:23:18;;;;;;;207.30;68.50;;;;;;;-1.61;69.38;102649.76;674417;1264;140347;-84
2023/02/05 22:38:22;;;;;;;176.80;61.00;;;;;;;-1.63;69.50;102628.48;674420;1265;139262;-84
2023/02/05 22:53:25;;;;;;;203.50;63.70;;;;;;;-1.35;70.25;102647.88;674023;1265;139399;-84
2023/02/05 23:08:29;;;;;;;157.70;57.30;;;;;;;-1.12;70.34;102664.70;674554;1264;138992;-84
2023/02/05 23:23:32;;;;;;;157.20;60.20;;;;;;;-1.29;70.24;102660.23;675267;1262;139633;-84
2023/02/05 23:38:36;;;;;;;230.30;77.10;;;;;;;-1.36;70.72;102654.40;673350;1265;139927;-85
2023/02/05 23:53:39;;;;;;;133.60;50.10;;;;;;;-1.15;71.21;102653.02;673617;1266;139633;-85
